sensor_id;sensor_type;location;lat;lon;timestamp;pressure;altitude;pressure_sealevel;temperature;humidity
47742;BME280;33504;52.066;6.096;2022-09-09T00:00:13;100714.94;;;17.95;49.69
47742;BME280;33504;52.066;6.096;2022-09-09T00:02:41;100713.41;;;17.59;50.08
47742;BME280;33504;52.066;6.096;2022-09-09T00:05:19;100708.43;;;17.91;49.96
47742;BME280;33504;52.066;6.096;2022-09-09T00:07:52;100707.01;;;17.93;49.97
47742;BME280;33504;52.066;6.096;2022-09-09T00:10:23;100703.70;;;17.62;49.93
47742;BME280;33504;52.066;6.096;2022-09-09T00:13:00;100705.14;;;17.91;49.81
47742;BME280;33504;52.066;6.096;2022-09-09T00:15:32;100704.67;;;17.79;49.99
47742;BME280;33504;52.066;6.096;2022-09-09T00:18:10;100705.58;;;17.75;49.99
47742;BME280;33504;52.066;6.096;2022-09-09T00:20:45;100701.06;;;17.93;49.85
47742;BME280;33504;52.066;6.096;2022-09-09T00:23:19;100697.33;;;17.55;50.66
47742;BME280;33504;52.066;6.096;2022-09-09T00:25:55;100697.02;;;17.91;49.90
47742;BME280;33504;52.066;6.096;2022-09-09T00:28:27;100698.38;;;17.77;50.05
47742;BME280;33504;52.066;6.096;2022-09-09T00:30:56;100692.03;;;17.97;49.58
47742;BME280;33504;52.066;6.096;2022-09-09T00:33:25;100693.29;;;17.97;49.59
47742;BME280;33504;52.066;6.096;2022-09-09T00:35:56;100690.54;;;18.12;49.47
47742;BME280;33504;52.066;6.096;2022-09-09T00:38:25;100693.55;;;18.03;49.39
47742;BME280;33504;52.066;6.096;2022-09-09T00:41:00;100690.36;;;18.34;49.21
47742;BME280;33504;52.066;6.096;2022-09-09T00:43:29;100690.36;;;18.17;49.64
47742;BME280;33504;52.066;6.096;2022-09-09T00:46:24;100689.75;;;18.11;49.74
47742;BME280;33504;52.066;6.096;2022-09-09T00:49:04;100686.50;;;18.19;49.53
47742;BME280;33504;52.066;6.096;2022-09-09T00:51:42;100686.66;;;18.15;49.58
47742;BME280;33504;52.066;6.096;2022-09-09T00:54:23;100683.82;;;18.40;49.45
47742;BME280;33504;52.066;6.096;2022-09-09T00:57:04;100681.22;;;18.30;49.57
47742;BME280;33504;52.066;6.096;2022-09-09T00:59:42;100679.74;;;18.26;49.95
47742;BME280;33504;52.066;6.096;2022-09-09T01:02:19;100671.93;;;18.28;49.53
47742;BME280;33504;52.066;6.096;2022-09-09T01:04:48;100666.55;;;18.33;49.91
47742;BME280;33504;52.066;6.096;2022-09-09T01:07:17;100666.64;;;18.07;49.87
47742;BME280;33504;52.066;6.096;2022-09-09T01:09:55;100670.34;;;18.08;50.03
47742;BME280;33504;52.066;6.096;2022-09-09T01:12:28;100668.34;;;18.00;49.95
47742;BME280;33504;52.066;6.096;2022-09-09T01:15:03;100666.61;;;17.50;50.66
47742;BME280;33504;52.066;6.096;2022-09-09T01:17:40;100665.91;;;17.90;50.58
47742;BME280;33504;52.066;6.096;2022-09-09T01:20:13;100666.67;;;17.90;50.48
47742;BME280;33504;52.066;6.096;2022-09-09T01:22:49;100667.64;;;17.42;50.94
47742;BME280;33504;52.066;6.096;2022-09-09T01:25:27;100669.45;;;17.33;51.26
47742;BME280;33504;52.066;6.096;2022-09-09T01:27:57;100671.03;;;17.46;51.37
47742;BME280;33504;52.066;6.096;2022-09-09T01:30:26;100671.14;;;17.74;50.76
47742;BME280;33504;52.066;6.096;2022-09-09T01:32:56;100667.60;;;17.76;51.07
47742;BME280;33504;52.066;6.096;2022-09-09T01:35:32;100670.30;;;17.46;50.99
47742;BME280;33504;52.066;6.096;2022-09-09T01:38:02;100673.47;;;17.03;51.71
47742;BME280;33504;52.066;6.096;2022-09-09T01:40:30;100672.02;;;17.02;52.11
47742;BME280;33504;52.066;6.096;2022-09-09T01:42:57;100675.96;;;17.00;51.97
47742;BME280;33504;52.066;6.096;2022-09-09T01:45:24;100675.79;;;16.72;51.90
47742;BME280;33504;52.066;6.096;2022-09-09T01:47:52;100678.98;;;17.22;51.45
47742;BME280;33504;52.066;6.096;2022-09-09T01:50:20;100677.52;;;16.83;51.44
47742;BME280;33504;52.066;6.096;2022-09-09T01:52:51;100681.41;;;16.64;51.76
47742;BME280;33504;52.066;6.096;2022-09-09T01:55:27;100679.32;;;16.57;52.01
47742;BME280;33504;52.066;6.096;2022-09-09T01:58:07;100677.95;;;16.78;51.65
47742;BME280;33504;52.066;6.096;2022-09-09T02:00:44;100674.66;;;16.44;51.74
47742;BME280;33504;52.066;6.096;2022-09-09T02:03:21;100676.57;;;16.82;51.38
47742;BME280;33504;52.066;6.096;2022-09-09T02:05:58;100676.13;;;16.76;51.04
47742;BME280;33504;52.066;6.096;2022-09-09T02:08:35;100674.33;;;17.20;50.51
47742;BME280;33504;52.066;6.096;2022-09-09T02:11:08;100672.20;;;17.33;50.72
47742;BME280;33504;52.066;6.096;2022-09-09T02:13:39;100670.91;;;16.60;50.98
47742;BME280;33504;52.066;6.096;2022-09-09T02:16:08;100667.61;;;17.11;50.72
47742;BME280;33504;52.066;6.096;2022-09-09T02:18:43;100667.33;;;17.17;50.26
47742;BME280;33504;52.066;6.096;2022-09-09T02:21:13;100667.74;;;17.20;50.12
47742;BME280;33504;52.066;6.096;2022-09-09T02:23:42;100668.85;;;16.72;50.71
47742;BME280;33504;52.066;6.096;2022-09-09T02:26:11;100667.80;;;16.97;50.62
47742;BME280;33504;52.066;6.096;2022-09-09T02:28:39;100666.95;;;17.15;50.27
47742;BME280;33504;52.066;6.096;2022-09-09T02:31:08;100665.24;;;16.91;50.25
47742;BME280;33504;52.066;6.096;2022-09-09T02:33:38;100661.64;;;17.42;50.34
47742;BME280;33504;52.066;6.096;2022-09-09T02:36:09;100657.47;;;16.99;50.21
47742;BME280;33504;52.066;6.096;2022-09-09T02:38:42;100657.03;;;16.99;50.55
47742;BME280;33504;52.066;6.096;2022-09-09T02:41:12;100656.04;;;17.06;50.37
47742;BME280;33504;52.066;6.096;2022-09-09T02:43:38;100655.25;;;16.67;50.39
47742;BME280;33504;52.066;6.096;2022-09-09T02:46:11;100655.94;;;16.84;50.59
47742;BME280;33504;52.066;6.096;2022-09-09T02:48:52;100655.82;;;16.78;50.89
47742;BME280;33504;52.066;6.096;2022-09-09T02:51:27;100657.45;;;16.78;51.25
47742;BME280;33504;52.066;6.096;2022-09-09T02:54:05;100659.28;;;16.43;51.29
47742;BME280;33504;52.066;6.096;2022-09-09T02:56:38;100658.67;;;16.77;50.72
47742;BME280;33504;52.066;6.096;2022-09-09T02:59:07;100659.75;;;16.57;50.87
47742;BME280;33504;52.066;6.096;2022-09-09T03:01:33;100659.30;;;16.62;50.99
47742;BME280;33504;52.066;6.096;2022-09-09T03:04:00;100662.23;;;16.47;51.21
47742;BME280;33504;52.066;6.096;2022-09-09T03:06:28;100659.29;;;16.87;51.01
47742;BME280;33504;52.066;6.096;2022-09-09T03:08:54;100655.78;;;16.64;50.85
47742;BME280;33504;52.066;6.096;2022-09-09T03:11:21;100657.07;;;16.44;51.16
47742;BME280;33504;52.066;6.096;2022-09-09T03:13:48;100654.65;;;16.43;51.15
47742;BME280;33504;52.066;6.096;2022-09-09T03:16:14;100652.60;;;16.60;51.39
47742;BME280;33504;52.066;6.096;2022-09-09T03:18:41;100652.39;;;16.66;50.96
47742;BME280;33504;52.066;6.096;2022-09-09T03:21:08;100653.42;;;16.74;50.70
47742;BME280;33504;52.066;6.096;2022-09-09T03:23:34;100658.93;;;16.80;50.47
47742;BME280;33504;52.066;6.096;2022-09-09T03:26:01;100658.79;;;16.92;50.68
47742;BME280;33504;52.066;6.096;2022-09-09T03:28:28;100660.78;;;16.62;50.72
47742;BME280;33504;52.066;6.096;2022-09-09T03:30:58;100667.33;;;16.58;50.87
47742;BME280;33504;52.066;6.096;2022-09-09T03:33:25;100671.71;;;16.80;51.14
47742;BME280;33504;52.066;6.096;2022-09-09T03:35:52;100669.75;;;16.22;52.06
47742;BME280;33504;52.066;6.096;2022-09-09T03:38:18;100664.77;;;16.55;51.45
47742;BME280;33504;52.066;6.096;2022-09-09T03:40:50;100663.38;;;16.28;52.13
47742;BME280;33504;52.066;6.096;2022-09-09T03:43:16;100662.69;;;16.30;52.26
47742;BME280;33504;52.066;6.096;2022-09-09T03:45:45;100660.76;;;16.30;51.77
47742;BME280;33504;52.066;6.096;2022-09-09T03:48:12;100664.46;;;16.58;51.61
47742;BME280;33504;52.066;6.096;2022-09-09T03:50:38;100667.09;;;16.19;52.05
47742;BME280;33504;52.066;6.096;2022-09-09T03:53:05;100667.07;;;16.16;52.12
47742;BME280;33504;52.066;6.096;2022-09-09T03:55:32;100664.28;;;16.40;52.26
47742;BME280;33504;52.066;6.096;2022-09-09T03:57:58;100661.69;;;16.44;52.16
47742;BME280;33504;52.066;6.096;2022-09-09T04:00:25;100659.17;;;16.40;52.30
47742;BME280;33504;52.066;6.096;2022-09-09T04:02:52;100657.02;;;16.05;53.05
47742;BME280;33504;52.066;6.096;2022-09-09T04:05:19;100658.80;;;15.53;54.38
47742;BME280;33504;52.066;6.096;2022-09-09T04:07:46;100655.91;;;16.02;53.39
47742;BME280;33504;52.066;6.096;2022-09-09T04:10:13;100651.50;;;16.16;53.31
47742;BME280;33504;52.066;6.096;2022-09-09T04:12:40;100651.51;;;16.49;52.59
47742;BME280;33504;52.066;6.096;2022-09-09T04:15:07;100657.06;;;16.55;52.42
47742;BME280;33504;52.066;6.096;2022-09-09T04:17:34;100650.87;;;16.20;52.85
47742;BME280;33504;52.066;6.096;2022-09-09T04:20:02;100653.33;;;16.42;52.39
47742;BME280;33504;52.066;6.096;2022-09-09T04:22:29;100653.79;;;16.77;52.09
47742;BME280;33504;52.066;6.096;2022-09-09T04:24:56;100655.24;;;16.41;52.48
47742;BME280;33504;52.066;6.096;2022-09-09T04:27:23;100654.88;;;16.61;52.65
47742;BME280;33504;52.066;6.096;2022-09-09T04:29:50;100653.90;;;16.05;52.96
47742;BME280;33504;52.066;6.096;2022-09-09T04:32:16;100647.87;;;16.33;52.87
47742;BME280;33504;52.066;6.096;2022-09-09T04:34:43;100639.90;;;16.20;52.73
47742;BME280;33504;52.066;6.096;2022-09-09T04:37:10;100638.57;;;16.71;52.53
47742;BME280;33504;52.066;6.096;2022-09-09T04:39:37;100638.52;;;16.57;52.94
47742;BME280;33504;52.066;6.096;2022-09-09T04:42:04;100640.81;;;16.38;52.73
47742;BME280;33504;52.066;6.096;2022-09-09T04:44:31;100635.46;;;16.59;52.96
47742;BME280;33504;52.066;6.096;2022-09-09T04:46:58;100637.60;;;16.72;52.72
47742;BME280;33504;52.066;6.096;2022-09-09T04:49:25;100639.30;;;16.71;52.75
47742;BME280;33504;52.066;6.096;2022-09-09T04:51:51;100639.79;;;16.86;52.43
47742;BME280;33504;52.066;6.096;2022-09-09T04:54:18;100642.78;;;16.18;53.38
47742;BME280;33504;52.066;6.096;2022-09-09T04:56:45;100638.80;;;16.64;53.11
47742;BME280;33504;52.066;6.096;2022-09-09T04:59:11;100642.11;;;16.57;53.17
47742;BME280;33504;52.066;6.096;2022-09-09T05:01:38;100640.59;;;16.83;52.59
47742;BME280;33504;52.066;6.096;2022-09-09T05:04:05;100637.50;;;16.85;52.20
47742;BME280;33504;52.066;6.096;2022-09-09T05:06:31;100637.35;;;16.56;52.34
47742;BME280;33504;52.066;6.096;2022-09-09T05:08:59;100635.89;;;17.02;52.01
47742;BME280;33504;52.066;6.096;2022-09-09T05:11:27;100638.52;;;16.69;52.20
47742;BME280;33504;52.066;6.096;2022-09-09T05:13:55;100639.26;;;16.72;52.14
47742;BME280;33504;52.066;6.096;2022-09-09T05:16:22;100638.86;;;17.00;52.02
47742;BME280;33504;52.066;6.096;2022-09-09T05:18:49;100635.82;;;16.89;52.39
47742;BME280;33504;52.066;6.096;2022-09-09T05:21:17;100629.97;;;17.09;52.56
47742;BME280;33504;52.066;6.096;2022-09-09T05:23:45;100624.20;;;16.87;52.13
47742;BME280;33504;52.066;6.096;2022-09-09T05:26:15;100621.72;;;16.92;52.40
47742;BME280;33504;52.066;6.096;2022-09-09T05:28:42;100621.68;;;17.00;52.28
47742;BME280;33504;52.066;6.096;2022-09-09T05:31:11;100623.80;;;17.03;52.31
47742;BME280;33504;52.066;6.096;2022-09-09T05:33:39;100624.47;;;16.85;53.10
47742;BME280;33504;52.066;6.096;2022-09-09T05:36:07;100622.32;;;16.75;52.42
47742;BME280;33504;52.066;6.096;2022-09-09T05:38:35;100624.36;;;16.95;51.97
47742;BME280;33504;52.066;6.096;2022-09-09T05:41:03;100625.09;;;17.24;51.82
47742;BME280;33504;52.066;6.096;2022-09-09T05:43:31;100625.19;;;17.41;51.73
47742;BME280;33504;52.066;6.096;2022-09-09T05:46:01;100625.85;;;17.33;51.93
47742;BME280;33504;52.066;6.096;2022-09-09T05:48:29;100627.13;;;17.29;52.13
47742;BME280;33504;52.066;6.096;2022-09-09T05:50:56;100628.78;;;17.29;51.63
47742;BME280;33504;52.066;6.096;2022-09-09T05:53:23;100630.74;;;17.12;52.04
47742;BME280;33504;52.066;6.096;2022-09-09T05:55:50;100632.70;;;17.16;52.11
47742;BME280;33504;52.066;6.096;2022-09-09T05:58:17;100631.44;;;16.96;52.57
47742;BME280;33504;52.066;6.096;2022-09-09T06:00:45;100631.09;;;16.97;52.72
47742;BME280;33504;52.066;6.096;2022-09-09T06:03:12;100633.72;;;17.08;52.47
47742;BME280;33504;52.066;6.096;2022-09-09T06:05:39;100635.83;;;17.13;52.51
47742;BME280;33504;52.066;6.096;2022-09-09T06:08:05;100638.85;;;17.00;52.79
47742;BME280;33504;52.066;6.096;2022-09-09T06:10:33;100640.04;;;17.23;52.97
47742;BME280;33504;52.066;6.096;2022-09-09T06:13:00;100639.87;;;17.07;52.86
47742;BME280;33504;52.066;6.096;2022-09-09T06:15:27;100643.55;;;16.73;53.58
47742;BME280;33504;52.066;6.096;2022-09-09T06:17:54;100641.13;;;16.56;54.03
47742;BME280;33504;52.066;6.096;2022-09-09T06:20:21;100643.24;;;16.41;54.28
47742;BME280;33504;52.066;6.096;2022-09-09T06:22:48;100646.57;;;16.82;53.64
47742;BME280;33504;52.066;6.096;2022-09-09T06:25:15;100641.62;;;16.75;53.95
47742;BME280;33504;52.066;6.096;2022-09-09T06:27:42;100638.37;;;16.96;54.25
47742;BME280;33504;52.066;6.096;2022-09-09T06:30:09;100634.68;;;17.26;53.65
47742;BME280;33504;52.066;6.096;2022-09-09T06:32:37;100641.57;;;16.60;54.13
47742;BME280;33504;52.066;6.096;2022-09-09T06:35:04;100642.03;;;16.59;54.35
47742;BME280;33504;52.066;6.096;2022-09-09T06:37:31;100640.40;;;17.01;53.47
47742;BME280;33504;52.066;6.096;2022-09-09T06:39:58;100636.97;;;17.12;53.37
47742;BME280;33504;52.066;6.096;2022-09-09T06:42:25;100641.99;;;16.85;53.93
47742;BME280;33504;52.066;6.096;2022-09-09T06:44:51;100637.37;;;17.48;53.31
47742;BME280;33504;52.066;6.096;2022-09-09T06:47:18;100641.43;;;17.46;52.76
47742;BME280;33504;52.066;6.096;2022-09-09T06:49:45;100642.66;;;17.56;52.69
47742;BME280;33504;52.066;6.096;2022-09-09T06:52:11;100642.05;;;17.53;52.69
47742;BME280;33504;52.066;6.096;2022-09-09T06:54:38;100638.49;;;17.69;52.87
47742;BME280;33504;52.066;6.096;2022-09-09T06:57:05;100642.54;;;17.53;52.61
47742;BME280;33504;52.066;6.096;2022-09-09T06:59:32;100641.06;;;17.87;52.10
47742;BME280;33504;52.066;6.096;2022-09-09T07:01:59;100643.47;;;17.95;52.09
47742;BME280;33504;52.066;6.096;2022-09-09T07:04:26;100644.16;;;17.69;52.25
47742;BME280;33504;52.066;6.096;2022-09-09T07:06:53;100643.76;;;17.87;51.76
47742;BME280;33504;52.066;6.096;2022-09-09T07:09:20;100642.12;;;17.52;52.79
47742;BME280;33504;52.066;6.096;2022-09-09T07:11:49;100640.17;;;18.08;51.81
47742;BME280;33504;52.066;6.096;2022-09-09T07:14:17;100635.83;;;17.57;52.07
47742;BME280;33504;52.066;6.096;2022-09-09T07:16:45;100638.83;;;17.55;52.33
47742;BME280;33504;52.066;6.096;2022-09-09T07:19:12;100639.11;;;17.70;52.70
47742;BME280;33504;52.066;6.096;2022-09-09T07:21:39;100642.70;;;17.53;53.11
47742;BME280;33504;52.066;6.096;2022-09-09T07:24:07;100642.50;;;17.49;52.85
47742;BME280;33504;52.066;6.096;2022-09-09T07:26:34;100651.25;;;17.61;52.95
47742;BME280;33504;52.066;6.096;2022-09-09T07:29:01;100650.59;;;17.47;52.64
47742;BME280;33504;52.066;6.096;2022-09-09T07:31:29;100650.97;;;17.83;52.68
47742;BME280;33504;52.066;6.096;2022-09-09T07:33:58;100647.21;;;17.94;52.38
47742;BME280;33504;52.066;6.096;2022-09-09T07:36:27;100648.07;;;18.15;51.66
47742;BME280;33504;52.066;6.096;2022-09-09T07:38:57;100645.34;;;18.05;51.53
47742;BME280;33504;52.066;6.096;2022-09-09T07:41:25;100642.31;;;18.03;51.69
47742;BME280;33504;52.066;6.096;2022-09-09T07:43:53;100649.53;;;18.38;51.67
47742;BME280;33504;52.066;6.096;2022-09-09T07:46:21;100652.77;;;17.99;51.83
47742;BME280;33504;52.066;6.096;2022-09-09T07:48:50;100648.74;;;18.22;51.21
47742;BME280;33504;52.066;6.096;2022-09-09T07:51:20;100652.78;;;18.90;49.52
47742;BME280;33504;52.066;6.096;2022-09-09T07:53:52;100653.33;;;18.42;50.66
47742;BME280;33504;52.066;6.096;2022-09-09T07:56:19;100654.86;;;18.32;50.21
47742;BME280;33504;52.066;6.096;2022-09-09T07:58:47;100654.80;;;18.42;51.21
47742;BME280;33504;52.066;6.096;2022-09-09T08:01:15;100654.59;;;18.11;50.97
47742;BME280;33504;52.066;6.096;2022-09-09T08:03:44;100653.21;;;18.07;51.04
47742;BME280;33504;52.066;6.096;2022-09-09T08:06:12;100657.96;;;18.67;50.03
47742;BME280;33504;52.066;6.096;2022-09-09T08:08:40;100658.35;;;19.44;49.81
47742;BME280;33504;52.066;6.096;2022-09-09T08:11:10;100659.96;;;19.19;49.26
47742;BME280;33504;52.066;6.096;2022-09-09T08:13:38;100667.52;;;19.16;48.74
47742;BME280;33504;52.066;6.096;2022-09-09T08:16:07;100671.97;;;19.19;48.15
47742;BME280;33504;52.066;6.096;2022-09-09T08:18:35;100666.45;;;19.16;48.57
47742;BME280;33504;52.066;6.096;2022-09-09T08:21:07;100666.51;;;19.11;48.25
47742;BME280;33504;52.066;6.096;2022-09-09T08:23:34;100666.72;;;19.53;47.26
47742;BME280;33504;52.066;6.096;2022-09-09T08:26:06;100668.34;;;19.42;47.16
47742;BME280;33504;52.066;6.096;2022-09-09T08:28:33;100662.44;;;19.23;47.37
47742;BME280;33504;52.066;6.096;2022-09-09T08:31:17;100660.20;;;19.86;47.25
47742;BME280;33504;52.066;6.096;2022-09-09T08:33:45;100663.06;;;20.18;46.21
47742;BME280;33504;52.066;6.096;2022-09-09T08:36:15;100664.50;;;19.76;46.17
47742;BME280;33504;52.066;6.096;2022-09-09T08:38:42;100664.89;;;19.14;46.65
47742;BME280;33504;52.066;6.096;2022-09-09T08:41:29;100660.89;;;19.05;46.93
47742;BME280;33504;52.066;6.096;2022-09-09T08:44:03;100661.46;;;19.53;46.94
47742;BME280;33504;52.066;6.096;2022-09-09T08:46:36;100661.84;;;19.53;46.48
47742;BME280;33504;52.066;6.096;2022-09-09T08:49:16;100663.85;;;19.61;46.61
47742;BME280;33504;52.066;6.096;2022-09-09T08:51:48;100668.55;;;19.59;46.70
47742;BME280;33504;52.066;6.096;2022-09-09T08:54:15;100670.51;;;19.50;46.32
47742;BME280;33504;52.066;6.096;2022-09-09T08:56:43;100673.64;;;19.37;47.26
47742;BME280;33504;52.066;6.096;2022-09-09T08:59:14;100676.80;;;18.97;47.16
47742;BME280;33504;52.066;6.096;2022-09-09T09:01:54;100675.03;;;19.75;46.06
47742;BME280;33504;52.066;6.096;2022-09-09T09:04:33;100680.77;;;19.39;46.65
47742;BME280;33504;52.066;6.096;2022-09-09T09:07:12;100682.40;;;19.03;46.42
47742;BME280;33504;52.066;6.096;2022-09-09T09:09:51;100696.84;;;19.27;46.48
47742;BME280;33504;52.066;6.096;2022-09-09T09:12:24;100685.35;;;18.98;46.94
47742;BME280;33504;52.066;6.096;2022-09-09T09:14:52;100686.05;;;18.97;47.49
47742;BME280;33504;52.066;6.096;2022-09-09T09:17:21;100685.49;;;19.11;46.71
47742;BME280;33504;52.066;6.096;2022-09-09T09:19:50;100688.71;;;18.83;47.22
47742;BME280;33504;52.066;6.096;2022-09-09T09:22:19;100685.92;;;18.67;46.70
47742;BME280;33504;52.066;6.096;2022-09-09T09:24:52;100689.61;;;19.16;47.10
47742;BME280;33504;52.066;6.096;2022-09-09T09:27:30;100690.39;;;19.09;46.26
47742;BME280;33504;52.066;6.096;2022-09-09T09:29:59;100696.07;;;19.34;45.96
47742;BME280;33504;52.066;6.096;2022-09-09T09:32:30;100692.95;;;19.13;46.39
47742;BME280;33504;52.066;6.096;2022-09-09T09:34:58;100695.08;;;19.42;46.79
47742;BME280;33504;52.066;6.096;2022-09-09T09:37:28;100691.11;;;19.50;46.02
47742;BME280;33504;52.066;6.096;2022-09-09T09:39:56;100688.14;;;19.43;46.20
47742;BME280;33504;52.066;6.096;2022-09-09T09:42:34;100689.88;;;19.61;45.93
47742;BME280;33504;52.066;6.096;2022-09-09T09:45:08;100693.29;;;19.54;45.23
47742;BME280;33504;52.066;6.096;2022-09-09T09:47:34;100688.90;;;20.05;44.28
47742;BME280;33504;52.066;6.096;2022-09-09T09:50:01;100683.78;;;20.37;43.98
47742;BME280;33504;52.066;6.096;2022-09-09T09:52:30;100689.88;;;20.03;44.26
47742;BME280;33504;52.066;6.096;2022-09-09T09:54:58;100693.01;;;20.11;43.85
47742;BME280;33504;52.066;6.096;2022-09-09T09:57:28;100688.77;;;19.83;44.47
47742;BME280;33504;52.066;6.096;2022-09-09T10:00:12;100689.12;;;19.87;44.65
47742;BME280;33504;52.066;6.096;2022-09-09T10:02:41;100680.26;;;20.20;44.06
47742;BME280;33504;52.066;6.096;2022-09-09T10:05:17;100680.34;;;19.56;44.96
47742;BME280;33504;52.066;6.096;2022-09-09T10:07:44;100677.27;;;20.04;43.30
47742;BME280;33504;52.066;6.096;2022-09-09T10:10:15;100677.66;;;20.12;43.27
47742;BME280;33504;52.066;6.096;2022-09-09T10:12:55;100675.93;;;20.58;42.52
47742;BME280;33504;52.066;6.096;2022-09-09T10:15:31;100681.82;;;20.36;42.90
47742;BME280;33504;52.066;6.096;2022-09-09T10:18:13;100681.95;;;20.82;43.00
47742;BME280;33504;52.066;6.096;2022-09-09T10:20:48;100689.82;;;20.43;42.87
47742;BME280;33504;52.066;6.096;2022-09-09T10:23:29;100677.73;;;20.88;42.24
47742;BME280;33504;52.066;6.096;2022-09-09T10:26:17;100680.64;;;20.15;43.04
47742;BME280;33504;52.066;6.096;2022-09-09T10:29:03;100679.12;;;20.22;42.63
47742;BME280;33504;52.066;6.096;2022-09-09T10:31:42;100685.74;;;19.74;43.22
47742;BME280;33504;52.066;6.096;2022-09-09T10:34:21;100683.85;;;19.77;43.43
47742;BME280;33504;52.066;6.096;2022-09-09T10:36:53;100688.09;;;19.51;44.26
47742;BME280;33504;52.066;6.096;2022-09-09T10:39:33;100687.23;;;19.47;44.71
47742;BME280;33504;52.066;6.096;2022-09-09T10:42:05;100694.70;;;19.49;44.85
47742;BME280;33504;52.066;6.096;2022-09-09T10:44:44;100689.29;;;19.24;45.90
47742;BME280;33504;52.066;6.096;2022-09-09T10:47:57;100689.35;;;20.04;45.28
47742;BME280;33504;52.066;6.096;2022-09-09T10:50:44;100681.94;;;19.81;44.74
47742;BME280;33504;52.066;6.096;2022-09-09T10:53:22;100687.77;;;19.28;45.38
47742;BME280;33504;52.066;6.096;2022-09-09T10:55:53;100679.84;;;19.67;44.76
47742;BME280;33504;52.066;6.096;2022-09-09T10:58:27;100686.02;;;19.88;43.97
47742;BME280;33504;52.066;6.096;2022-09-09T11:01:01;100684.13;;;19.39;44.74
47742;BME280;33504;52.066;6.096;2022-09-09T11:03:29;100684.61;;;18.89;45.08
47742;BME280;33504;52.066;6.096;2022-09-09T11:06:01;100681.16;;;19.51;44.69
47742;BME280;33504;52.066;6.096;2022-09-09T11:08:32;100685.12;;;19.83;44.10
47742;BME280;33504;52.066;6.096;2022-09-09T11:11:03;100679.25;;;20.05;43.56
47742;BME280;33504;52.066;6.096;2022-09-09T11:13:36;100677.77;;;20.39;43.50
47742;BME280;33504;52.066;6.096;2022-09-09T11:16:17;100681.11;;;20.19;43.24
47742;BME280;33504;52.066;6.096;2022-09-09T11:18:48;100674.48;;;20.43;43.62
47742;BME280;33504;52.066;6.096;2022-09-09T11:21:21;100676.47;;;19.78;45.44
47742;BME280;33504;52.066;6.096;2022-09-09T11:23:53;100673.16;;;20.10;44.48
47742;BME280;33504;52.066;6.096;2022-09-09T11:26:33;100671.49;;;19.91;43.95
47742;BME280;33504;52.066;6.096;2022-09-09T11:29:16;100672.89;;;20.37;43.09
47742;BME280;33504;52.066;6.096;2022-09-09T11:31:59;100675.72;;;20.00;43.44
47742;BME280;33504;52.066;6.096;2022-09-09T11:34:38;100673.93;;;20.28;43.38
47742;BME280;33504;52.066;6.096;2022-09-09T11:37:17;100674.70;;;20.20;43.65
47742;BME280;33504;52.066;6.096;2022-09-09T11:40:07;100679.59;;;19.97;44.21
47742;BME280;33504;52.066;6.096;2022-09-09T11:42:36;100686.61;;;20.09;44.27
47742;BME280;33504;52.066;6.096;2022-09-09T11:45:23;100688.06;;;19.24;45.85
47742;BME280;33504;52.066;6.096;2022-09-09T11:47:53;100684.29;;;19.69;45.01
47742;BME280;33504;52.066;6.096;2022-09-09T11:50:31;100687.07;;;19.39;45.09
47742;BME280;33504;52.066;6.096;2022-09-09T11:53:19;100691.69;;;19.66;44.92
47742;BME280;33504;52.066;6.096;2022-09-09T11:55:46;100688.74;;;19.44;46.21
47742;BME280;33504;52.066;6.096;2022-09-09T11:58:17;100694.91;;;19.46;46.85
47742;BME280;33504;52.066;6.096;2022-09-09T12:00:46;100691.19;;;19.29;47.49
47742;BME280;33504;52.066;6.096;2022-09-09T12:03:34;100700.07;;;19.25;47.96
47742;BME280;33504;52.066;6.096;2022-09-09T12:06:11;100693.66;;;19.24;48.65
47742;BME280;33504;52.066;6.096;2022-09-09T12:08:42;100693.04;;;19.18;50.22
47742;BME280;33504;52.066;6.096;2022-09-09T12:11:10;100689.00;;;19.35;49.02
47742;BME280;33504;52.066;6.096;2022-09-09T12:13:37;100691.07;;;19.09;49.30
47742;BME280;33504;52.066;6.096;2022-09-09T12:16:04;100687.16;;;19.63;48.81
47742;BME280;33504;52.066;6.096;2022-09-09T12:18:34;100688.14;;;19.17;49.27
47742;BME280;33504;52.066;6.096;2022-09-09T12:21:11;100689.12;;;19.23;49.20
47742;BME280;33504;52.066;6.096;2022-09-09T12:23:47;100685.55;;;19.35;49.11
47742;BME280;33504;52.066;6.096;2022-09-09T12:26:28;100684.23;;;18.98;50.26
47742;BME280;33504;52.066;6.096;2022-09-09T12:29:09;100694.39;;;18.68;50.48
47742;BME280;33504;52.066;6.096;2022-09-09T12:31:43;100683.53;;;19.41;49.52
47742;BME280;33504;52.066;6.096;2022-09-09T12:34:15;100685.84;;;19.97;48.00
47742;BME280;33504;52.066;6.096;2022-09-09T12:36:44;100679.92;;;19.65;48.39
47742;BME280;33504;52.066;6.096;2022-09-09T12:39:19;100677.58;;;20.17;46.89
47742;BME280;33504;52.066;6.096;2022-09-09T12:41:53;100675.67;;;20.10;47.18
47742;BME280;33504;52.066;6.096;2022-09-09T12:44:20;100673.41;;;20.35;47.17
47742;BME280;33504;52.066;6.096;2022-09-09T12:46:48;100671.38;;;20.12;46.55
47742;BME280;33504;52.066;6.096;2022-09-09T12:49:27;100662.01;;;20.15;46.64
47742;BME280;33504;52.066;6.096;2022-09-09T12:51:55;100672.43;;;20.28;46.38
47742;BME280;33504;52.066;6.096;2022-09-09T12:54:23;100662.94;;;20.02;46.84
47742;BME280;33504;52.066;6.096;2022-09-09T12:56:50;100659.08;;;19.59;47.51
47742;BME280;33504;52.066;6.096;2022-09-09T12:59:23;100660.08;;;19.79;47.54
47742;BME280;33504;52.066;6.096;2022-09-09T13:01:59;100660.47;;;19.93;46.87
47742;BME280;33504;52.066;6.096;2022-09-09T13:04:26;100656.58;;;19.93;47.16
47742;BME280;33504;52.066;6.096;2022-09-09T13:06:53;100651.15;;;20.37;46.93
47742;BME280;33504;52.066;6.096;2022-09-09T13:09:20;100647.98;;;20.91;45.52